Time,TemperatureF,DewpointF,PressureIn,WindDirection,WindDirectionDegrees,WindSpeedMPH,WindSpeedGustMPH,Humidity,HourlyPrecipIn,Conditions,Clouds,dailyrainin,SoftwareType,DateUTC
2013-08-02 00:02:00,62.0,48.0,-100.00,East,95,6.0,9.0,59,-99.99,,,-99.99,,2013-08-02 06:02:00,
2013-08-02 00:12:00,62.0,48.0,-100.00,East,95,6.0,9.0,59,-99.99,,,-99.99,,2013-08-02 06:12:00,
2013-08-02 01:02:00,61.0,50.0,-100.00,ENE,65,7.0,10.0,66,-99.99,,,-99.99,,2013-08-02 07:02:00,
2013-08-02 01:53:00,61.0,49.0,-100.00,NE,55,1.0,2.0,63,-99.99,,,-99.99,,2013-08-02 07:53:00,
2013-08-02 02:02:00,61.0,48.0,-100.00,SE,125,2.0,2.0,63,-99.99,,,-99.99,,2013-08-02 08:02:00,
2013-08-02 02:33:00,60.0,49.0,-100.00,East,85,5.0,6.0,67,-99.99,,,-99.99,,2013-08-02 08:33:00,
2013-08-02 02:54:00,59.0,49.0,-100.00,SE,125,4.0,7.0,70,-99.99,,,-99.99,,2013-08-02 08:54:00,
2013-08-02 03:02:00,59.0,50.0,-100.00,East,95,4.0,6.0,72,-99.99,,,-99.99,,2013-08-02 09:02:00,
2013-08-02 03:53:00,57.0,49.0,-100.00,NE,50,6.0,8.0,73,-99.99,,,-99.99,,2013-08-02 09:53:00,
2013-08-02 04:03:00,56.0,48.0,-100.00,SSE,165,0.0,6.0,73,-99.99,,,-99.99,,2013-08-02 10:03:00,
2013-08-02 04:12:00,56.0,48.0,-100.00,SSE,165,0.0,6.0,73,-99.99,,,-99.99,,2013-08-02 10:12:00,
2013-08-02 04:52:00,55.0,48.0,-100.00,ENE,65,4.0,7.0,74,-99.99,,,-99.99,,2013-08-02 10:52:00,
2013-08-02 05:02:00,56.0,48.0,-100.00,East,85,4.0,7.0,74,-99.99,,,-99.99,,2013-08-02 11:02:00,
2013-08-02 05:12:00,56.0,48.0,-100.00,East,85,4.0,7.0,74,-99.99,,,-99.99,,2013-08-02 11:12:00,
2013-08-02 05:52:00,56.0,49.0,-100.00,SE,125,3.0,4.0,76,-99.99,,,-99.99,,2013-08-02 11:52:00,
2013-08-02 06:02:00,56.0,49.0,-100.00,ESE,105,3.0,4.0,76,-99.99,,,-99.99,,2013-08-02 12:02:00,
2013-08-02 07:02:00,58.0,49.0,-100.00,SE,125,3.0,4.0,70,-99.99,,,-99.99,,2013-08-02 13:02:00,
2013-08-02 07:12:00,58.0,49.0,-100.00,SE,125,3.0,4.0,70,-99.99,,,-99.99,,2013-08-02 13:12:00,
2013-08-02 08:02:00,60.0,48.0,-100.00,East,100,6.0,8.0,65,-99.99,,,-99.99,,2013-08-02 14:02:00,
2013-08-02 08:12:00,60.0,48.0,-100.00,East,100,6.0,8.0,65,-99.99,,,-99.99,,2013-08-02 14:12:00,
2013-08-02 08:53:00,62.0,48.0,-100.00,ESE,115,9.0,13.0,60,-99.99,,,-99.99,,2013-08-02 14:53:00,
2013-08-02 09:03:00,63.0,48.0,-100.00,SE,130,10.0,12.0,57,-99.99,,,-99.99,,2013-08-02 15:03:00,
2013-08-02 09:12:00,63.0,48.0,-100.00,SE,130,10.0,12.0,57,-99.99,,,-99.99,,2013-08-02 15:12:00,
2013-08-02 09:52:00,62.0,49.0,-100.00,SE,140,10.0,12.0,61,-99.99,,,-99.99,,2013-08-02 15:52:00,
2013-08-02 10:02:00,62.0,49.0,-100.00,SE,145,8.0,14.0,62,-99.99,,,-99.99,,2013-08-02 16:02:00,
2013-08-02 10:12:00,62.0,49.0,-100.00,SE,145,8.0,14.0,62,-99.99,,,-99.99,,2013-08-02 16:12:00,
2013-08-02 10:53:00,63.0,50.0,-100.00,ESE,120,11.0,15.0,61,-99.99,,,-99.99,,2013-08-02 16:53:00,
2013-08-02 11:02:00,64.0,50.0,-100.00,ESE,105,12.0,14.0,60,-99.99,,,-99.99,,2013-08-02 17:02:00,
2013-08-02 11:52:00,69.0,48.0,-100.00,ESE,110,13.0,26.0,46,-99.99,,,-99.99,,2013-08-02 17:52:00,
2013-08-02 12:52:00,70.0,46.0,-100.00,ESE,110,16.0,20.0,42,-99.99,,,-99.99,,2013-08-02 18:52:00,
2013-08-02 13:02:00,70.0,46.0,-100.00,ESE,105,12.0,21.0,43,-99.99,,,-99.99,,2013-08-02 19:02:00,
2013-08-02 13:12:00,70.0,46.0,-100.00,ESE,105,12.0,21.0,43,-99.99,,,-99.99,,2013-08-02 19:12:00,
2013-08-02 14:02:00,69.0,46.0,-100.00,East,90,10.0,13.0,44,-99.99,,,-99.99,,2013-08-02 20:02:00,
2013-08-02 14:12:00,69.0,46.0,-100.00,East,90,10.0,13.0,44,-99.99,,,-99.99,,2013-08-02 20:12:00,
2013-08-02 14:52:00,68.0,45.0,-100.00,ENE,75,14.0,18.0,44,-99.99,,,-99.99,,2013-08-02 20:52:00,
2013-08-02 15:02:00,68.0,45.0,-100.00,ENE,70,13.0,17.0,44,-99.99,,,-99.99,,2013-08-02 21:02:00,
2013-08-02 15:12:00,68.0,45.0,-100.00,ENE,70,13.0,17.0,44,-99.99,,,-99.99,,2013-08-02 21:12:00,
2013-08-02 15:53:00,68.0,45.0,-100.00,East,95,13.0,16.0,43,-99.99,,,-99.99,,2013-08-02 21:53:00,
2013-08-02 16:52:00,70.0,46.0,-100.00,East,95,14.0,16.0,42,-99.99,,,-99.99,,2013-08-02 22:52:00,
2013-08-02 17:02:00,70.0,46.0,-100.00,East,100,14.0,17.0,41,-99.99,,,-99.99,,2013-08-02 23:02:00,
2013-08-02 17:12:00,70.0,46.0,-100.00,East,100,14.0,17.0,41,-99.99,,,-99.99,,2013-08-02 23:12:00,
2013-08-02 18:02:00,70.0,45.0,-100.00,East,95,11.0,16.0,41,-99.99,,,-99.99,,2013-08-03 00:02:00,
2013-08-02 18:12:00,70.0,45.0,-100.00,East,95,11.0,16.0,41,-99.99,,,-99.99,,2013-08-03 00:12:00,
2013-08-02 18:52:00,70.0,45.0,-100.00,ESE,105,13.0,18.0,40,-99.99,,,-99.99,,2013-08-03 00:52:00,
2013-08-02 19:53:00,68.0,45.0,-100.00,ESE,105,11.0,15.0,43,-99.99,,,-99.99,,2013-08-03 01:53:00,
2013-08-02 20:02:00,68.0,45.0,-100.00,ESE,105,10.0,13.0,43,-99.99,,,-99.99,,2013-08-03 02:02:00,
2013-08-02 20:12:00,68.0,45.0,-100.00,ESE,105,10.0,13.0,43,-99.99,,,-99.99,,2013-08-03 02:12:00,
2013-08-02 20:52:00,67.0,46.0,-100.00,East,100,4.0,6.0,47,-99.99,,,-99.99,,2013-08-03 02:52:00,
2013-08-02 21:02:00,66.0,46.0,-100.00,ENE,75,6.0,6.0,48,-99.99,,,-99.99,,2013-08-03 03:02:00,
2013-08-02 21:12:00,66.0,46.0,-100.00,ENE,75,6.0,6.0,48,-99.99,,,-99.99,,2013-08-03 03:12:00,
2013-08-02 22:53:00,62.0,45.0,-100.00,ENE,65,7.0,12.0,52,-99.99,,,-99.99,,2013-08-03 04:53:00,
2013-08-02 23:02:00,62.0,44.0,-100.00,ENE,65,7.0,10.0,52,-99.99,,,-99.99,,2013-08-03 05:02:00,
2013-08-02 23:12:00,62.0,44.0,-100.00,ENE,65,7.0,10.0,52,-99.99,,,-99.99,,2013-08-03 05:12:00,
2013-08-02 23:32:00,62.0,45.0,-100.00,East,100,6.0,8.0,52,-99.99,,,-99.99,,2013-08-03 05:32:00,
2013-08-02 23:52:00,60.0,45.0,-100.00,East,80,7.0,9.0,56,-99.99,,,-99.99,,2013-08-03 05:52:00,